sensor_id;sensor_type;location;lat;lon;timestamp;pressure;altitude;pressure_sealevel;temperature;humidity
11172;BME280;5642;50.830;12.082;2023-05-02T00:01:12;99298.63;;;14.08;37.32
11172;BME280;5642;50.830;12.082;2023-05-02T00:03:38;99300.50;;;14.06;37.41
11172;BME280;5642;50.830;12.082;2023-05-02T00:06:19;99300.91;;;13.97;37.51
11172;BME280;5642;50.830;12.082;2023-05-02T00:08:46;99327.41;;;14.13;37.49
11172;BME280;5642;50.830;12.082;2023-05-02T00:11:14;99267.13;;;13.69;37.41
11172;BME280;5642;50.830;12.082;2023-05-02T00:13:43;99319.56;;;13.93;37.51
11172;BME280;5642;50.830;12.082;2023-05-02T00:16:09;99325.31;;;14.01;37.48
11172;BME280;5642;50.830;12.082;2023-05-02T00:18:36;99316.50;;;14.02;37.65
11172;BME280;5642;50.830;12.082;2023-05-02T00:21:03;99311.16;;;14.03;37.61
11172;BME280;5642;50.830;12.082;2023-05-02T00:23:30;99315.94;;;13.95;37.50
11172;BME280;5642;50.830;12.082;2023-05-02T00:25:57;99293.97;;;13.78;37.71
11172;BME280;5642;50.830;12.082;2023-05-02T00:28:23;99285.63;;;13.68;37.73
11172;BME280;5642;50.830;12.082;2023-05-02T00:30:51;99292.66;;;13.67;37.81
11172;BME280;5642;50.830;12.082;2023-05-02T00:33:17;99304.03;;;13.68;37.85
11172;BME280;5642;50.830;12.082;2023-05-02T00:35:44;99311.94;;;13.68;37.74
11172;BME280;5642;50.830;12.082;2023-05-02T00:38:10;99322.53;;;13.66;37.97
11172;BME280;5642;50.830;12.082;2023-05-02T00:43:11;99330.94;;;13.56;37.75
11172;BME280;5642;50.830;12.082;2023-05-02T00:45:38;99335.47;;;13.52;38.22
11172;BME280;5642;50.830;12.082;2023-05-02T00:48:06;99330.41;;;13.48;38.18
11172;BME280;5642;50.830;12.082;2023-05-02T00:50:41;99314.31;;;13.35;38.44
11172;BME280;5642;50.830;12.082;2023-05-02T00:53:09;99327.25;;;13.40;38.13
11172;BME280;5642;50.830;12.082;2023-05-02T00:55:39;99329.16;;;13.36;38.07
11172;BME280;5642;50.830;12.082;2023-05-02T00:58:10;99322.28;;;13.33;38.07
11172;BME280;5642;50.830;12.082;2023-05-02T01:03:50;99335.03;;;13.22;38.38
11172;BME280;5642;50.830;12.082;2023-05-02T01:12:05;99323.44;;;13.06;38.60
11172;BME280;5642;50.830;12.082;2023-05-02T01:14:43;99309.88;;;12.95;38.45
11172;BME280;5642;50.830;12.082;2023-05-02T01:17:13;99321.31;;;12.94;38.63
11172;BME280;5642;50.830;12.082;2023-05-02T01:19:56;99314.56;;;12.88;38.54
11172;BME280;5642;50.830;12.082;2023-05-02T01:22:25;99295.06;;;12.72;38.68
11172;BME280;5642;50.830;12.082;2023-05-02T01:30:26;99311.06;;;12.68;38.46
11172;BME280;5642;50.830;12.082;2023-05-02T01:32:56;99323.03;;;12.75;38.90
11172;BME280;5642;50.830;12.082;2023-05-02T01:35:25;99339.44;;;12.80;38.57
11172;BME280;5642;50.830;12.082;2023-05-02T01:37:53;99341.34;;;12.76;38.78
11172;BME280;5642;50.830;12.082;2023-05-02T01:40:21;99296.22;;;12.45;38.88
11172;BME280;5642;50.830;12.082;2023-05-02T01:42:50;99303.94;;;12.49;38.72
11172;BME280;5642;50.830;12.082;2023-05-02T01:45:18;99325.25;;;12.64;38.89
11172;BME280;5642;50.830;12.082;2023-05-02T01:47:46;99315.22;;;12.51;38.92
11172;BME280;5642;50.830;12.082;2023-05-02T01:50:17;99350.41;;;12.69;39.25
11172;BME280;5642;50.830;12.082;2023-05-02T01:52:46;99295.94;;;12.31;38.94
11172;BME280;5642;50.830;12.082;2023-05-02T01:55:16;99288.09;;;12.29;38.83
11172;BME280;5642;50.830;12.082;2023-05-02T01:57:45;99320.88;;;12.42;39.39
11172;BME280;5642;50.830;12.082;2023-05-02T02:00:16;99358.41;;;12.66;39.27
11172;BME280;5642;50.830;12.082;2023-05-02T02:02:45;99336.31;;;12.50;38.91
11172;BME280;5642;50.830;12.082;2023-05-02T02:05:13;99355.94;;;12.63;39.03
11172;BME280;5642;50.830;12.082;2023-05-02T02:07:40;99363.66;;;12.66;39.17
11172;BME280;5642;50.830;12.082;2023-05-02T02:10:08;99345.72;;;12.55;39.23
11172;BME280;5642;50.830;12.082;2023-05-02T02:12:39;99350.59;;;12.65;38.74
11172;BME280;5642;50.830;12.082;2023-05-02T02:15:30;99372.03;;;12.76;39.20
11172;BME280;5642;50.830;12.082;2023-05-02T02:18:10;99366.13;;;12.71;38.91
11172;BME280;5642;50.830;12.082;2023-05-02T02:20:39;99366.44;;;12.63;39.10
11172;BME280;5642;50.830;12.082;2023-05-02T02:23:08;99381.81;;;12.72;39.22
11172;BME280;5642;50.830;12.082;2023-05-02T02:25:37;99378.53;;;12.67;39.08
11172;BME280;5642;50.830;12.082;2023-05-02T02:28:03;99342.78;;;12.41;38.83
11172;BME280;5642;50.830;12.082;2023-05-02T02:30:30;99368.31;;;12.60;39.15
11172;BME280;5642;50.830;12.082;2023-05-02T02:32:57;99381.09;;;12.69;38.77
11172;BME280;5642;50.830;12.082;2023-05-02T02:35:30;99370.78;;;12.64;39.07
11172;BME280;5642;50.830;12.082;2023-05-02T02:41:07;99389.94;;;12.88;38.99
11172;BME280;5642;50.830;12.082;2023-05-02T02:44:09;99372.59;;;12.84;39.10
11172;BME280;5642;50.830;12.082;2023-05-02T02:46:49;99400.72;;;13.02;38.95
11172;BME280;5642;50.830;12.082;2023-05-02T02:49:46;99411.78;;;13.10;38.86
11172;BME280;5642;50.830;12.082;2023-05-02T02:52:37;99413.47;;;13.13;38.83
11172;BME280;5642;50.830;12.082;2023-05-02T02:55:15;99424.78;;;13.15;38.90
11172;BME280;5642;50.830;12.082;2023-05-02T02:57:54;99424.78;;;13.15;38.80
11172;BME280;5642;50.830;12.082;2023-05-02T03:00:24;99427.50;;;13.13;39.09
11172;BME280;5642;50.830;12.082;2023-05-02T03:02:54;99411.31;;;13.01;39.07
11172;BME280;5642;50.830;12.082;2023-05-02T03:05:22;99410.00;;;12.90;39.08
11172;BME280;5642;50.830;12.082;2023-05-02T03:07:50;99442.69;;;13.05;39.28
11172;BME280;5642;50.830;12.082;2023-05-02T03:10:16;99438.59;;;12.98;39.15
11172;BME280;5642;50.830;12.082;2023-05-02T03:12:43;99412.38;;;12.75;39.21
11172;BME280;5642;50.830;12.082;2023-05-02T03:17:38;99405.34;;;12.53;39.50
11172;BME280;5642;50.830;12.082;2023-05-02T03:20:06;99451.81;;;12.75;39.83
11172;BME280;5642;50.830;12.082;2023-05-02T03:22:32;99465.13;;;12.70;39.83
11172;BME280;5642;50.830;12.082;2023-05-02T03:24:58;99443.72;;;12.57;39.82
11172;BME280;5642;50.830;12.082;2023-05-02T03:27:25;99460.13;;;12.64;39.80
11172;BME280;5642;50.830;12.082;2023-05-02T03:29:51;99451.53;;;12.59;39.55
11172;BME280;5642;50.830;12.082;2023-05-02T03:32:17;99470.69;;;12.63;39.82
11172;BME280;5642;50.830;12.082;2023-05-02T03:34:45;99475.94;;;12.63;39.84
11172;BME280;5642;50.830;12.082;2023-05-02T03:37:11;99466.53;;;12.57;39.72
11172;BME280;5642;50.830;12.082;2023-05-02T03:39:37;99445.09;;;12.44;39.71
11172;BME280;5642;50.830;12.082;2023-05-02T03:42:07;99447.59;;;12.49;39.55
11172;BME280;5642;50.830;12.082;2023-05-02T03:44:37;99468.97;;;12.62;39.93
11172;BME280;5642;50.830;12.082;2023-05-02T03:47:03;99475.13;;;12.61;39.48
11172;BME280;5642;50.830;12.082;2023-05-02T03:49:29;99451.84;;;12.51;39.56
11172;BME280;5642;50.830;12.082;2023-05-02T03:51:56;99415.59;;;12.38;39.53
11172;BME280;5642;50.830;12.082;2023-05-02T03:54:22;99462.97;;;12.58;39.56
11172;BME280;5642;50.830;12.082;2023-05-02T03:56:48;99463.72;;;12.62;39.49
11172;BME280;5642;50.830;12.082;2023-05-02T03:59:14;99477.13;;;12.77;39.39
11172;BME280;5642;50.830;12.082;2023-05-02T04:01:41;99472.88;;;12.73;39.69
11172;BME280;5642;50.830;12.082;2023-05-02T04:04:07;99490.13;;;12.80;39.61
11172;BME280;5642;50.830;12.082;2023-05-02T04:06:34;99504.88;;;12.84;39.49
11172;BME280;5642;50.830;12.082;2023-05-02T04:09:00;99503.03;;;12.86;39.77
11172;BME280;5642;50.830;12.082;2023-05-02T04:11:29;99513.50;;;12.88;39.54
11172;BME280;5642;50.830;12.082;2023-05-02T04:13:55;99528.25;;;12.92;39.53
11172;BME280;5642;50.830;12.082;2023-05-02T04:16:21;99530.13;;;12.88;39.78
11172;BME280;5642;50.830;12.082;2023-05-02T04:18:47;99506.75;;;12.81;39.69
11172;BME280;5642;50.830;12.082;2023-05-02T04:21:14;99491.97;;;12.78;39.83
11172;BME280;5642;50.830;12.082;2023-05-02T04:23:41;99507.94;;;12.95;39.75
11172;BME280;5642;50.830;12.082;2023-05-02T04:26:10;99497.31;;;12.99;39.54
11172;BME280;5642;50.830;12.082;2023-05-02T04:28:36;99525.41;;;13.20;39.65
11172;BME280;5642;50.830;12.082;2023-05-02T04:31:04;99509.56;;;13.21;39.46
11172;BME280;5642;50.830;12.082;2023-05-02T04:33:30;99511.75;;;13.32;39.44
11172;BME280;5642;50.830;12.082;2023-05-02T04:35:57;99539.59;;;13.58;39.49
11172;BME280;5642;50.830;12.082;2023-05-02T04:38:23;99496.44;;;13.42;39.42
11172;BME280;5642;50.830;12.082;2023-05-02T04:40:50;99527.53;;;13.74;39.19
11172;BME280;5642;50.830;12.082;2023-05-02T04:43:17;99515.34;;;13.92;39.05
11172;BME280;5642;50.830;12.082;2023-05-02T04:45:43;99553.50;;;14.42;38.68
11172;BME280;5642;50.830;12.082;2023-05-02T04:48:09;99548.34;;;14.60;38.36
11172;BME280;5642;50.830;12.082;2023-05-02T04:50:35;99562.38;;;14.79;38.43
11172;BME280;5642;50.830;12.082;2023-05-02T04:53:02;99521.34;;;14.55;38.43
11172;BME280;5642;50.830;12.082;2023-05-02T04:55:29;99533.94;;;14.48;38.70
11172;BME280;5642;50.830;12.082;2023-05-02T04:57:58;99546.47;;;14.43;39.17
11172;BME280;5642;50.830;12.082;2023-05-02T05:00:25;99573.53;;;14.46;39.30
11172;BME280;5642;50.830;12.082;2023-05-02T05:03:20;99575.59;;;14.40;39.31
11172;BME280;5642;50.830;12.082;2023-05-02T05:09:17;99571.09;;;14.22;39.46
11172;BME280;5642;50.830;12.082;2023-05-02T05:11:43;99577.97;;;14.26;39.59
11172;BME280;5642;50.830;12.082;2023-05-02T05:14:11;99559.19;;;14.13;39.26
11172;BME280;5642;50.830;12.082;2023-05-02T05:16:38;99584.09;;;14.26;39.50
11172;BME280;5642;50.830;12.082;2023-05-02T05:19:04;99591.25;;;14.23;39.48
11172;BME280;5642;50.830;12.082;2023-05-02T05:21:31;99543.47;;;13.91;39.57
11172;BME280;5642;50.830;12.082;2023-05-02T05:23:58;99607.78;;;14.26;39.62
11172;BME280;5642;50.830;12.082;2023-05-02T05:26:24;99578.81;;;14.06;39.61
11172;BME280;5642;50.830;12.082;2023-05-02T05:28:52;99624.53;;;14.25;39.34
11172;BME280;5642;50.830;12.082;2023-05-02T05:31:18;99573.16;;;13.95;39.88
11172;BME280;5642;50.830;12.082;2023-05-02T05:33:45;99580.72;;;14.02;39.89
11172;BME280;5642;50.830;12.082;2023-05-02T05:36:13;99618.19;;;14.29;39.90
11172;BME280;5642;50.830;12.082;2023-05-02T05:38:40;99614.78;;;14.27;40.00
11172;BME280;5642;50.830;12.082;2023-05-02T05:41:06;99621.41;;;14.36;40.03
11172;BME280;5642;50.830;12.082;2023-05-02T05:43:35;99612.22;;;14.26;39.84
11172;BME280;5642;50.830;12.082;2023-05-02T05:46:02;99635.34;;;14.39;40.15
11172;BME280;5642;50.830;12.082;2023-05-02T05:51:51;99642.44;;;14.37;40.03
11172;BME280;5642;50.830;12.082;2023-05-02T05:54:18;99616.81;;;14.21;40.18
11172;BME280;5642;50.830;12.082;2023-05-02T05:56:44;99641.72;;;14.34;40.09
11172;BME280;5642;50.830;12.082;2023-05-02T05:59:11;99647.69;;;14.39;40.07
11172;BME280;5642;50.830;12.082;2023-05-02T06:01:37;99644.13;;;14.40;40.12
11172;BME280;5642;50.830;12.082;2023-05-02T06:04:03;99655.09;;;14.49;40.23
11172;BME280;5642;50.830;12.082;2023-05-02T06:06:30;99668.53;;;14.64;40.23
11172;BME280;5642;50.830;12.082;2023-05-02T06:09:00;99628.16;;;14.43;40.32
11172;BME280;5642;50.830;12.082;2023-05-02T06:11:26;99623.75;;;14.43;40.29
11172;BME280;5642;50.830;12.082;2023-05-02T06:13:53;99670.44;;;14.80;40.33
11172;BME280;5642;50.830;12.082;2023-05-02T06:16:20;99656.09;;;14.67;40.30
11172;BME280;5642;50.830;12.082;2023-05-02T06:18:49;99663.59;;;14.76;40.28
11172;BME280;5642;50.830;12.082;2023-05-02T06:21:17;99662.59;;;14.79;40.17
11172;BME280;5642;50.830;12.082;2023-05-02T06:23:43;99685.78;;;14.91;40.31
11172;BME280;5642;50.830;12.082;2023-05-02T06:26:10;99697.78;;;14.98;40.30
11172;BME280;5642;50.830;12.082;2023-05-02T06:28:36;99694.34;;;14.96;40.14
11172;BME280;5642;50.830;12.082;2023-05-02T06:31:05;99687.13;;;15.00;40.31
11172;BME280;5642;50.830;12.082;2023-05-02T06:33:31;99656.28;;;14.83;40.45
11172;BME280;5642;50.830;12.082;2023-05-02T06:35:59;99686.44;;;14.96;40.39
11172;BME280;5642;50.830;12.082;2023-05-02T06:38:25;99683.59;;;15.01;40.36
11172;BME280;5642;50.830;12.082;2023-05-02T06:40:51;99712.50;;;15.22;40.32
11172;BME280;5642;50.830;12.082;2023-05-02T06:43:18;99704.44;;;15.25;40.35
11172;BME280;5642;50.830;12.082;2023-05-02T06:45:44;99713.84;;;15.31;40.04
11172;BME280;5642;50.830;12.082;2023-05-02T06:48:10;99718.28;;;15.31;40.38
11172;BME280;5642;50.830;12.082;2023-05-02T06:50:39;99715.88;;;15.26;40.27
11172;BME280;5642;50.830;12.082;2023-05-02T06:53:06;99692.75;;;15.12;40.54
11172;BME280;5642;50.830;12.082;2023-05-02T06:55:32;99691.66;;;15.16;40.36
11172;BME280;5642;50.830;12.082;2023-05-02T06:58:01;99737.78;;;15.47;40.43
11172;BME280;5642;50.830;12.082;2023-05-02T07:00:27;99698.94;;;15.30;40.24
11172;BME280;5642;50.830;12.082;2023-05-02T07:02:53;99732.88;;;15.58;40.20
11172;BME280;5642;50.830;12.082;2023-05-02T07:05:23;99746.84;;;15.79;40.30
11172;BME280;5642;50.830;12.082;2023-05-02T07:07:49;99760.47;;;15.88;40.26
11172;BME280;5642;50.830;12.082;2023-05-02T07:10:15;99753.97;;;15.95;40.12
11172;BME280;5642;50.830;12.082;2023-05-02T07:12:42;99715.88;;;15.82;40.38
11172;BME280;5642;50.830;12.082;2023-05-02T07:15:08;99763.94;;;16.08;40.26
11172;BME280;5642;50.830;12.082;2023-05-02T07:17:34;99764.88;;;16.06;40.52
11172;BME280;5642;50.830;12.082;2023-05-02T07:20:02;99768.19;;;16.12;40.46
11172;BME280;5642;50.830;12.082;2023-05-02T07:22:28;99770.25;;;16.05;40.48
11172;BME280;5642;50.830;12.082;2023-05-02T07:25:00;99735.72;;;15.91;40.60
11172;BME280;5642;50.830;12.082;2023-05-02T07:27:27;99729.72;;;15.87;40.48
11172;BME280;5642;50.830;12.082;2023-05-02T07:29:59;99729.34;;;15.95;40.60
11172;BME280;5642;50.830;12.082;2023-05-02T07:32:30;99784.13;;;16.27;40.44
11172;BME280;5642;50.830;12.082;2023-05-02T07:35:00;99730.06;;;15.98;40.42
11172;BME280;5642;50.830;12.082;2023-05-02T07:37:31;99786.38;;;16.35;40.36
11172;BME280;5642;50.830;12.082;2023-05-02T07:39:58;99782.69;;;16.39;40.39
11172;BME280;5642;50.830;12.082;2023-05-02T07:42:31;99786.00;;;16.42;40.57
11172;BME280;5642;50.830;12.082;2023-05-02T07:44:57;99776.47;;;16.40;40.46
11172;BME280;5642;50.830;12.082;2023-05-02T07:47:24;99772.03;;;16.40;40.43
11172;BME280;5642;50.830;12.082;2023-05-02T07:49:52;99780.72;;;16.61;40.67
11172;BME280;5642;50.830;12.082;2023-05-02T07:52:19;99792.75;;;16.84;40.38
11172;BME280;5642;50.830;12.082;2023-05-02T07:54:50;99759.22;;;16.84;40.47
11172;BME280;5642;50.830;12.082;2023-05-02T07:57:17;99792.66;;;17.20;40.18
11172;BME280;5642;50.830;12.082;2023-05-02T07:59:43;99794.41;;;17.37;40.06
11172;BME280;5642;50.830;12.082;2023-05-02T08:02:13;99794.97;;;17.59;40.20
11172;BME280;5642;50.830;12.082;2023-05-02T08:04:40;99741.47;;;17.52;39.93
11172;BME280;5642;50.830;12.082;2023-05-02T08:07:07;99745.28;;;17.80;39.84
11172;BME280;5642;50.830;12.082;2023-05-02T08:09:34;99754.84;;;18.14;39.71
11172;BME280;5642;50.830;12.082;2023-05-02T08:12:00;99800.28;;;18.69;39.67
11172;BME280;5642;50.830;12.082;2023-05-02T08:14:27;99804.84;;;18.97;39.53
11172;BME280;5642;50.830;12.082;2023-05-02T08:16:54;99809.19;;;19.12;39.37
11172;BME280;5642;50.830;12.082;2023-05-02T08:19:22;99811.22;;;19.23;39.40
11172;BME280;5642;50.830;12.082;2023-05-02T08:21:48;99820.38;;;19.47;39.48
11172;BME280;5642;50.830;12.082;2023-05-02T08:24:16;99821.91;;;19.65;39.50
11172;BME280;5642;50.830;12.082;2023-05-02T08:26:42;99821.06;;;19.79;39.38
11172;BME280;5642;50.830;12.082;2023-05-02T08:29:08;99811.66;;;19.87;39.33
11172;BME280;5642;50.830;12.082;2023-05-02T08:31:38;99825.28;;;20.10;39.30
11172;BME280;5642;50.830;12.082;2023-05-02T08:34:04;99806.81;;;20.21;39.17
11172;BME280;5642;50.830;12.082;2023-05-02T08:36:30;99830.69;;;20.49;38.95
11172;BME280;5642;50.830;12.082;2023-05-02T08:38:57;99832.09;;;20.55;39.10
11172;BME280;5642;50.830;12.082;2023-05-02T08:41:24;99832.47;;;20.63;39.32
11172;BME280;5642;50.830;12.082;2023-05-02T08:43:51;99826.81;;;20.67;39.33
11172;BME280;5642;50.830;12.082;2023-05-02T08:46:21;99827.41;;;20.85;38.89
11172;BME280;5642;50.830;12.082;2023-05-02T08:48:49;99829.38;;;20.96;39.05
11172;BME280;5642;50.830;12.082;2023-05-02T08:51:16;99841.19;;;21.04;39.22
11172;BME280;5642;50.830;12.082;2023-05-02T08:53:44;99834.09;;;21.18;38.81
11172;BME280;5642;50.830;12.082;2023-05-02T08:56:11;99845.66;;;21.31;39.08
11172;BME280;5642;50.830;12.082;2023-05-02T08:58:39;99846.16;;;21.48;38.79
11172;BME280;5642;50.830;12.082;2023-05-02T09:01:12;99852.13;;;22.03;38.76
11172;BME280;5642;50.830;12.082;2023-05-02T09:03:43;99854.81;;;22.63;38.12
11172;BME280;5642;50.830;12.082;2023-05-02T09:06:17;99844.09;;;23.11;37.95
11172;BME280;5642;50.830;12.082;2023-05-02T09:08:47;99829.03;;;23.56;37.65
11172;BME280;5642;50.830;12.082;2023-05-02T09:11:15;99852.22;;;24.44;37.67
11172;BME280;5642;50.830;12.082;2023-05-02T09:16:16;99846.25;;;25.78;36.54
11172;BME280;5642;50.830;12.082;2023-05-02T09:18:45;99844.13;;;26.12;36.28
11172;BME280;5642;50.830;12.082;2023-05-02T09:21:23;99844.53;;;26.47;36.25
11172;BME280;5642;50.830;12.082;2023-05-02T09:23:55;99852.75;;;26.75;36.20
11172;BME280;5642;50.830;12.082;2023-05-02T09:28:53;99821.34;;;26.75;36.09
11172;BME280;5642;50.830;12.082;2023-05-02T09:31:23;99853.31;;;26.88;35.82
11172;BME280;5642;50.830;12.082;2023-05-02T09:33:53;99846.38;;;26.66;35.87
11172;BME280;5642;50.830;12.082;2023-05-02T09:36:20;99856.13;;;26.48;36.03
11172;BME280;5642;50.830;12.082;2023-05-02T09:39:14;99860.06;;;26.04;36.16
11172;BME280;5642;50.830;12.082;2023-05-02T09:41:45;99857.47;;;25.62;36.39
11172;BME280;5642;50.830;12.082;2023-05-02T09:44:13;99857.47;;;25.21;36.87
11172;BME280;5642;50.830;12.082;2023-05-02T09:46:41;99848.28;;;24.71;36.63
11172;BME280;5642;50.830;12.082;2023-05-02T09:49:08;99862.00;;;24.34;37.06
11172;BME280;5642;50.830;12.082;2023-05-02T09:51:35;99872.22;;;23.85;37.43
11172;BME280;5642;50.830;12.082;2023-05-02T09:54:01;99877.38;;;23.41;37.40
11172;BME280;5642;50.830;12.082;2023-05-02T09:56:27;99881.69;;;22.96;37.57
11172;BME280;5642;50.830;12.082;2023-05-02T09:59:14;99895.13;;;22.47;37.92
11172;BME280;5642;50.830;12.082;2023-05-02T10:01:40;99892.03;;;22.04;38.32
11172;BME280;5642;50.830;12.082;2023-05-02T10:04:16;99863.25;;;21.59;37.87
11172;BME280;5642;50.830;12.082;2023-05-02T10:06:44;99848.72;;;21.25;37.99
11172;BME280;5642;50.830;12.082;2023-05-02T10:09:10;99896.72;;;21.37;38.25
11172;BME280;5642;50.830;12.082;2023-05-02T10:11:38;99894.31;;;21.20;38.04
11172;BME280;5642;50.830;12.082;2023-05-02T10:14:11;99880.44;;;21.15;37.86
11172;BME280;5642;50.830;12.082;2023-05-02T10:16:44;99884.06;;;21.14;37.79
11172;BME280;5642;50.830;12.082;2023-05-02T10:19:19;99898.28;;;21.40;37.27
11172;BME280;5642;50.830;12.082;2023-05-02T10:21:48;99876.25;;;21.51;37.23
11172;BME280;5642;50.830;12.082;2023-05-02T10:24:27;99853.44;;;21.72;37.01
11172;BME280;5642;50.830;12.082;2023-05-02T10:26:56;99904.34;;;22.43;37.09
11172;BME280;5642;50.830;12.082;2023-05-02T10:29:35;99839.81;;;22.49;36.94
11172;BME280;5642;50.830;12.082;2023-05-02T10:32:03;99868.81;;;22.90;36.47
11172;BME280;5642;50.830;12.082;2023-05-02T10:34:32;99902.75;;;23.36;36.52
11172;BME280;5642;50.830;12.082;2023-05-02T10:37:02;99876.50;;;23.41;36.07
11172;BME280;5642;50.830;12.082;2023-05-02T10:39:28;99845.06;;;23.45;36.29
11172;BME280;5642;50.830;12.082;2023-05-02T10:42:18;99840.47;;;23.91;36.03
11172;BME280;5642;50.830;12.082;2023-05-02T10:44:45;99864.94;;;24.74;36.41
11172;BME280;5642;50.830;12.082;2023-05-02T10:47:22;99895.44;;;25.47;35.81
11172;BME280;5642;50.830;12.082;2023-05-02T10:49:56;99885.66;;;25.78;35.66
11172;BME280;5642;50.830;12.082;2023-05-02T10:55:28;99874.09;;;25.87;35.44
11172;BME280;5642;50.830;12.082;2023-05-02T11:00:28;99891.34;;;25.84;35.45
11172;BME280;5642;50.830;12.082;2023-05-02T11:03:04;99890.22;;;25.66;35.77
11172;BME280;5642;50.830;12.082;2023-05-02T11:05:30;99871.72;;;25.42;35.65
11172;BME280;5642;50.830;12.082;2023-05-02T11:10:40;99842.78;;;25.04;35.38
11172;BME280;5642;50.830;12.082;2023-05-02T11:13:06;99886.22;;;25.40;35.44
11172;BME280;5642;50.830;12.082;2023-05-02T11:18:00;99875.31;;;26.03;35.69
11172;BME280;5642;50.830;12.082;2023-05-02T11:20:29;99883.13;;;26.46;35.64
11172;BME280;5642;50.830;12.082;2023-05-02T11:25:53;99892.94;;;26.76;35.47
11172;BME280;5642;50.830;12.082;2023-05-02T11:28:41;99888.88;;;26.92;34.97
11172;BME280;5642;50.830;12.082;2023-05-02T11:34:02;99859.00;;;26.85;35.14
11172;BME280;5642;50.830;12.082;2023-05-02T11:36:38;99877.41;;;27.09;34.88
11172;BME280;5642;50.830;12.082;2023-05-02T11:39:20;99853.88;;;26.82;34.68
11172;BME280;5642;50.830;12.082;2023-05-02T11:41:53;99870.44;;;26.68;34.92
11172;BME280;5642;50.830;12.082;2023-05-02T11:44:25;99831.91;;;26.29;34.71
11172;BME280;5642;50.830;12.082;2023-05-02T11:46:58;99830.22;;;25.97;34.90
11172;BME280;5642;50.830;12.082;2023-05-02T11:49:30;99832.41;;;25.83;34.99
11172;BME280;5642;50.830;12.082;2023-05-02T11:52:06;99819.56;;;25.56;35.08
11172;BME280;5642;50.830;12.082;2023-05-02T11:54:32;99831.34;;;25.44;35.02
11172;BME280;5642;50.830;12.082;2023-05-02T11:57:00;99854.69;;;25.32;35.08
11172;BME280;5642;50.830;12.082;2023-05-02T11:59:26;99842.91;;;25.03;35.33
11172;BME280;5642;50.830;12.082;2023-05-02T12:01:52;99879.81;;;25.10;35.28
11172;BME280;5642;50.830;12.082;2023-05-02T12:04:20;99832.53;;;24.77;35.22
11172;BME280;5642;50.830;12.082;2023-05-02T12:06:56;99866.16;;;25.13;34.94
11172;BME280;5642;50.830;12.082;2023-05-02T12:09:22;99853.59;;;25.14;34.91
11172;BME280;5642;50.830;12.082;2023-05-02T12:11:52;99858.56;;;25.18;34.74
11172;BME280;5642;50.830;12.082;2023-05-02T12:14:28;99875.63;;;25.17;34.63
11172;BME280;5642;50.830;12.082;2023-05-02T12:16:57;99877.25;;;25.09;34.32
11172;BME280;5642;50.830;12.082;2023-05-02T12:19:24;99876.84;;;24.92;34.48
11172;BME280;5642;50.830;12.082;2023-05-02T12:21:50;99874.00;;;24.62;34.69
11172;BME280;5642;50.830;12.082;2023-05-02T12:24:16;99890.56;;;24.56;34.62
11172;BME280;5642;50.830;12.082;2023-05-02T12:26:42;99889.63;;;24.35;34.74
11172;BME280;5642;50.830;12.082;2023-05-02T12:29:08;99903.84;;;24.13;34.69
11172;BME280;5642;50.830;12.082;2023-05-02T12:31:34;99897.03;;;23.87;34.85
11172;BME280;5642;50.830;12.082;2023-05-02T12:34:01;99863.25;;;23.39;34.77
11172;BME280;5642;50.830;12.082;2023-05-02T12:36:27;99860.13;;;22.99;35.30
11172;BME280;5642;50.830;12.082;2023-05-02T12:38:55;99912.31;;;22.92;35.14
11172;BME280;5642;50.830;12.082;2023-05-02T12:41:31;99917.53;;;22.57;35.12
11172;BME280;5642;50.830;12.082;2023-05-02T12:43:57;99883.16;;;22.04;35.61
11172;BME280;5642;50.830;12.082;2023-05-02T12:46:25;99912.28;;;21.94;35.75
11172;BME280;5642;50.830;12.082;2023-05-02T12:49:08;99914.63;;;21.61;35.75
11172;BME280;5642;50.830;12.082;2023-05-02T12:51:40;99944.28;;;21.56;36.17
11172;BME280;5642;50.830;12.082;2023-05-02T12:54:06;99968.50;;;21.26;36.08
11172;BME280;5642;50.830;12.082;2023-05-02T12:56:39;99960.41;;;21.01;36.24
11172;BME280;5642;50.830;12.082;2023-05-02T12:59:29;99967.69;;;20.85;36.41
11172;BME280;5642;50.830;12.082;2023-05-02T13:01:58;99987.06;;;20.60;36.25
11172;BME280;5642;50.830;12.082;2023-05-02T13:04:41;99977.34;;;20.30;36.32
11172;BME280;5642;50.830;12.082;2023-05-02T13:07:08;99992.06;;;20.08;36.36
11172;BME280;5642;50.830;12.082;2023-05-02T13:09:34;99991.00;;;19.82;36.71
11172;BME280;5642;50.830;12.082;2023-05-02T13:12:00;99970.06;;;19.32;36.65
11172;BME280;5642;50.830;12.082;2023-05-02T13:14:32;99985.69;;;19.06;36.77
11172;BME280;5642;50.830;12.082;2023-05-02T13:17:04;99997.94;;;18.77;37.09
11172;BME280;5642;50.830;12.082;2023-05-02T13:19:38;99961.94;;;18.25;37.09
11172;BME280;5642;50.830;12.082;2023-05-02T13:22:19;99988.22;;;18.12;37.44
11172;BME280;5642;50.830;12.082;2023-05-02T13:24:48;99960.00;;;17.78;37.55
11172;BME280;5642;50.830;12.082;2023-05-02T13:27:22;99977.16;;;17.71;37.54
11172;BME280;5642;50.830;12.082;2023-05-02T13:29:59;99978.63;;;17.59;37.82
11172;BME280;5642;50.830;12.082;2023-05-02T13:33:05;99980.00;;;17.49;37.73
11172;BME280;5642;50.830;12.082;2023-05-02T13:35:32;99976.19;;;17.38;37.79
11172;BME280;5642;50.830;12.082;2023-05-02T13:38:07;99952.91;;;17.27;37.86
11172;BME280;5642;50.830;12.082;2023-05-02T13:40:41;99976.03;;;17.41;37.86
11172;BME280;5642;50.830;12.082;2023-05-02T13:43:07;99973.97;;;17.47;37.80
11172;BME280;5642;50.830;12.082;2023-05-02T13:45:33;99996.50;;;17.73;37.83
11172;BME280;5642;50.830;12.082;2023-05-02T13:48:00;99979.59;;;17.76;37.77
11172;BME280;5642;50.830;12.082;2023-05-02T13:50:26;100027.13;;;18.12;37.74
11172;BME280;5642;50.830;12.082;2023-05-02T13:52:53;100014.06;;;18.09;37.76
11172;BME280;5642;50.830;12.082;2023-05-02T13:55:21;100019.09;;;18.13;37.83
11172;BME280;5642;50.830;12.082;2023-05-02T13:57:48;100034.81;;;18.18;37.73
11172;BME280;5642;50.830;12.082;2023-05-02T14:00:14;100022.16;;;18.06;37.75
11172;BME280;5642;50.830;12.082;2023-05-02T14:02:40;100049.84;;;18.17;37.94